createdAt,value
2022-12-23T00:00:21.701Z,53.85
2022-12-23T00:02:49.760Z,46.85
2022-12-23T00:05:18.074Z,53.38
2022-12-23T00:07:46.246Z,42.60
2022-12-23T00:10:14.259Z,49.90
2022-12-23T00:13:01.256Z,54.58
2022-12-23T00:15:29.244Z,54.05
2022-12-23T00:17:57.533Z,57.10
2022-12-23T00:20:25.533Z,49.15
2022-12-23T00:23:08.435Z,56.13
2022-12-23T00:25:45.026Z,47.70
2022-12-23T00:28:16.554Z,51.53
2022-12-23T00:30:48.489Z,49.57
2022-12-23T00:33:18.120Z,55.75
2022-12-23T00:35:46.841Z,55.95
2022-12-23T00:38:15.172Z,49.80
2022-12-23T00:41:00.976Z,58.70
2022-12-23T00:43:30.374Z,50.40
2022-12-23T00:45:58.462Z,52.28
2022-12-23T00:48:49.336Z,54.25
2022-12-23T00:51:17.343Z,59.08
2022-12-23T00:53:45.340Z,61.63
2022-12-23T00:56:13.342Z,53.42
2022-12-23T00:58:42.702Z,60.10
2022-12-23T01:01:28.596Z,60.95
2022-12-23T01:04:14.298Z,54.63
2022-12-23T01:06:42.334Z,56.58
2022-12-23T01:09:10.424Z,57.83
2022-12-23T01:11:38.554Z,61.20
2022-12-23T01:14:09.311Z,61.83
2022-12-23T01:16:38.079Z,59.45
2022-12-23T01:19:06.593Z,63.92
2022-12-23T01:21:34.788Z,59.28
2022-12-23T01:24:02.828Z,61.00
2022-12-23T01:26:30.823Z,57.75
2022-12-23T01:28:59.505Z,61.28
2022-12-23T01:31:29.315Z,73.78
2022-12-23T01:33:57.540Z,61.50
2022-12-23T01:36:25.628Z,71.10
2022-12-23T01:38:53.746Z,80.43
2022-12-23T01:41:38.641Z,73.57
2022-12-23T01:44:40.061Z,77.72
2022-12-23T01:47:12.023Z,85.22
2022-12-23T01:49:40.266Z,69.85
2022-12-23T01:52:08.411Z,82.78
2022-12-23T01:54:37.148Z,91.07
2022-12-23T01:57:05.289Z,88.57
2022-12-23T01:59:51.036Z,91.25
2022-12-23T02:02:38.945Z,89.72
2022-12-23T02:05:07.426Z,97.15
2022-12-23T02:07:53.676Z,107.80
2022-12-23T02:10:21.914Z,104.32
2022-12-23T02:12:53.373Z,116.55
2022-12-23T02:15:49.390Z,105.27
2022-12-23T02:18:35.139Z,116.45
2022-12-23T02:21:12.387Z,119.10
2022-12-23T02:23:59.284Z,106.88
2022-12-23T02:27:01.339Z,130.40
2022-12-23T02:29:58.113Z,125.22
2022-12-23T02:32:31.075Z,118.05
2022-12-23T02:35:06.080Z,124.68
2022-12-23T02:37:36.712Z,125.50
2022-12-23T02:40:10.016Z,118.70
2022-12-23T02:42:39.834Z,134.98
2022-12-23T02:45:10.881Z,119.95
2022-12-23T02:47:42.283Z,134.00
2022-12-23T02:50:13.084Z,133.80
2022-12-23T02:52:42.851Z,126.10
2022-12-23T02:55:15.668Z,127.25
2022-12-23T02:57:46.810Z,144.15
2022-12-23T03:00:15.995Z,133.15
2022-12-23T03:02:45.667Z,132.52
2022-12-23T03:05:28.457Z,129.10
2022-12-23T03:07:59.475Z,138.10
2022-12-23T03:10:34.591Z,136.30
2022-12-23T03:13:10.148Z,135.18
2022-12-23T03:15:42.561Z,149.85
2022-12-23T03:18:17.866Z,145.10
2022-12-23T03:20:52.276Z,148.07
2022-12-23T03:23:24.555Z,150.90
2022-12-23T03:28:29.541Z,145.45
2022-12-23T03:30:58.780Z,137.43
2022-12-23T03:33:30.900Z,152.43
2022-12-23T03:36:01.731Z,148.55
2022-12-23T03:38:30.814Z,137.95
2022-12-23T03:41:02.808Z,134.60
2022-12-23T03:43:34.524Z,135.95
2022-12-23T03:46:05.962Z,138.65
2022-12-23T03:48:37.450Z,153.68
2022-12-23T03:51:10.879Z,152.73
2022-12-23T03:53:40.457Z,151.05
2022-12-23T03:56:11.376Z,152.88
2022-12-23T03:58:43.619Z,159.70
2022-12-23T04:03:45.973Z,151.88
2022-12-23T04:06:17.079Z,167.23
2022-12-23T04:08:45.690Z,139.10
2022-12-23T04:11:13.856Z,155.82
2022-12-23T04:13:42.314Z,144.18
2022-12-23T04:16:11.197Z,171.15
2022-12-23T04:18:39.314Z,157.77
2022-12-23T04:21:08.705Z,148.25
2022-12-23T04:23:36.951Z,152.40
2022-12-23T04:26:05.374Z,147.73
2022-12-23T04:28:33.355Z,146.57
2022-12-23T04:31:01.442Z,141.50
2022-12-23T04:33:29.544Z,137.77
2022-12-23T04:36:00.229Z,122.70
2022-12-23T04:38:29.656Z,143.13
2022-12-23T04:40:57.694Z,119.50
2022-12-23T04:43:25.759Z,125.85
2022-12-23T04:45:53.861Z,129.07
2022-12-23T04:48:22.039Z,115.38
2022-12-23T04:50:50.096Z,123.07
2022-12-23T04:53:18.646Z,129.75
2022-12-23T04:55:52.375Z,108.70
2022-12-23T04:58:22.256Z,105.25
2022-12-23T05:00:50.483Z,105.53
2022-12-23T05:03:19.047Z,102.75
2022-12-23T05:05:47.243Z,96.68
2022-12-23T05:08:15.345Z,112.90
2022-12-23T05:10:43.376Z,102.35
2022-12-23T05:13:12.833Z,92.93
2022-12-23T05:15:41.295Z,103.40
2022-12-23T05:18:09.458Z,102.63
2022-12-23T05:20:37.655Z,106.88
2022-12-23T05:23:05.710Z,99.45
2022-12-23T05:25:34.249Z,97.68
2022-12-23T05:28:02.300Z,104.38
2022-12-23T05:30:32.081Z,96.57
2022-12-23T05:33:00.431Z,95.40
2022-12-23T05:35:29.266Z,96.45
2022-12-23T05:37:57.654Z,95.13
2022-12-23T05:40:30.445Z,100.43
2022-12-23T05:43:00.578Z,95.72
2022-12-23T05:45:30.892Z,93.22
2022-12-23T05:48:00.265Z,92.85
2022-12-23T05:50:28.380Z,92.55
2022-12-23T05:52:57.756Z,97.13
2022-12-23T05:55:25.769Z,92.13
2022-12-23T05:57:54.845Z,91.47
2022-12-23T06:00:23.097Z,90.30
2022-12-23T06:02:53.749Z,103.55
2022-12-23T06:05:23.883Z,94.55
2022-12-23T06:07:52.153Z,96.18
2022-12-23T06:10:20.400Z,87.07
2022-12-23T06:12:48.383Z,92.05
2022-12-23T06:15:16.780Z,85.68
2022-12-23T06:17:44.847Z,91.70
2022-12-23T06:20:20.045Z,88.72
2022-12-23T06:22:50.212Z,93.93
2022-12-23T06:25:18.362Z,82.80
2022-12-23T06:27:46.637Z,88.63
2022-12-23T06:30:15.224Z,101.97
2022-12-23T06:32:43.240Z,93.70
2022-12-23T06:35:11.333Z,86.60
2022-12-23T06:37:39.467Z,90.20
2022-12-23T06:40:10.386Z,98.25
2022-12-23T06:42:38.614Z,92.35
2022-12-23T06:45:07.566Z,90.95
2022-12-23T06:47:35.613Z,104.55
2022-12-23T06:50:04.795Z,112.60
2022-12-23T06:52:32.817Z,103.95
2022-12-23T06:55:00.867Z,113.93
2022-12-23T06:57:30.665Z,98.43
2022-12-23T06:59:58.832Z,116.05
2022-12-23T07:02:27.106Z,118.90
2022-12-23T07:04:55.355Z,121.65
2022-12-23T07:07:23.561Z,122.28
2022-12-23T07:09:51.678Z,131.95
2022-12-23T07:12:19.849Z,166.55
2022-12-23T07:14:49.268Z,150.88
2022-12-23T07:17:17.851Z,261.65
2022-12-23T07:19:45.890Z,453.13
2022-12-23T07:22:13.955Z,375.35
2022-12-23T07:24:41.953Z,460.67
2022-12-23T07:27:10.849Z,457.60
2022-12-23T07:29:38.833Z,351.85
2022-12-23T07:32:08.319Z,255.23
2022-12-23T07:34:36.481Z,496.60
2022-12-23T07:37:04.656Z,484.83
2022-12-23T07:39:32.675Z,269.50
2022-12-23T07:42:33.905Z,429.92
2022-12-23T07:44:48.850Z,323.95
2022-12-23T07:47:18.215Z,375.45
2022-12-23T07:49:46.202Z,308.10
2022-12-23T07:52:14.191Z,294.27
2022-12-23T07:54:42.251Z,264.13
2022-12-23T07:57:10.455Z,230.80
2022-12-23T07:59:38.415Z,264.77
2022-12-23T08:02:06.787Z,454.65
2022-12-23T08:04:40.984Z,422.15
2022-12-23T08:07:12.384Z,382.23
2022-12-23T08:09:40.637Z,228.32
2022-12-23T08:12:08.757Z,384.10
2022-12-23T08:14:37.104Z,315.45
2022-12-23T08:17:05.301Z,349.83
2022-12-23T08:19:33.501Z,320.08
2022-12-23T08:22:03.222Z,392.13
2022-12-23T08:24:31.388Z,275.33
2022-12-23T08:26:59.614Z,371.23
2022-12-23T08:29:32.540Z,500.67
2022-12-23T08:32:04.065Z,596.55
2022-12-23T08:34:32.085Z,484.90
2022-12-23T08:37:00.126Z,397.40
2022-12-23T08:39:29.853Z,261.20
2022-12-23T08:41:57.923Z,198.63
2022-12-23T08:44:28.079Z,271.67
2022-12-23T08:46:59.302Z,153.73
2022-12-23T08:49:28.613Z,145.55
2022-12-23T08:51:56.673Z,144.82
2022-12-23T08:54:25.456Z,145.93
2022-12-23T08:56:55.221Z,105.13
2022-12-23T08:59:23.200Z,126.68
2022-12-23T09:01:51.756Z,110.28
2022-12-23T09:04:20.105Z,111.53
2022-12-23T09:06:48.162Z,105.70
2022-12-23T09:09:17.219Z,111.85
2022-12-23T09:11:45.280Z,107.35
2022-12-23T09:14:14.978Z,112.50
2022-12-23T09:16:43.096Z,118.50
2022-12-23T09:19:11.126Z,104.15
2022-12-23T09:21:39.268Z,105.03
2022-12-23T09:24:07.685Z,113.90
2022-12-23T09:26:35.742Z,99.82
2022-12-23T09:29:04.135Z,90.20
2022-12-23T09:31:37.417Z,87.63
2022-12-23T09:34:06.564Z,93.60
2022-12-23T09:36:34.892Z,94.00
2022-12-23T09:39:02.927Z,102.35
2022-12-23T09:41:36.430Z,100.22
2022-12-23T09:44:15.999Z,117.00
2022-12-23T09:46:48.961Z,100.13
2022-12-23T09:49:18.694Z,94.18
2022-12-23T09:51:48.027Z,107.38
2022-12-23T09:54:19.128Z,97.85
2022-12-23T09:56:50.562Z,102.65
2022-12-23T09:59:29.059Z,108.90
2022-12-23T10:02:02.016Z,79.93
2022-12-23T10:04:35.125Z,90.80
2022-12-23T10:07:23.556Z,112.53
2022-12-23T10:09:52.698Z,125.07
2022-12-23T10:12:40.234Z,101.60
2022-12-23T10:15:20.727Z,96.13
2022-12-23T10:17:52.064Z,106.35
2022-12-23T10:20:29.168Z,92.65
2022-12-23T10:22:58.407Z,117.22
2022-12-23T10:25:30.222Z,93.90
2022-12-23T10:27:58.310Z,98.18
2022-12-23T10:30:56.856Z,82.63
2022-12-23T10:33:21.160Z,78.68
2022-12-23T10:35:57.845Z,75.68
2022-12-23T10:38:47.197Z,64.80
2022-12-23T10:41:26.521Z,70.07
2022-12-23T10:44:11.133Z,62.00
2022-12-23T10:46:43.613Z,56.97
2022-12-23T10:49:20.512Z,48.67
2022-12-23T10:51:51.051Z,51.15
2022-12-23T10:54:22.397Z,43.70
2022-12-23T10:56:50.756Z,52.08
2022-12-23T10:59:24.585Z,47.10
2022-12-23T11:01:56.054Z,45.53
2022-12-23T11:04:32.088Z,46.47
2022-12-23T11:07:41.594Z,47.60
2022-12-23T11:09:52.141Z,48.55
2022-12-23T11:14:53.235Z,42.13
2022-12-23T11:17:23.075Z,49.92
2022-12-23T11:20:09.091Z,48.88
2022-12-23T11:22:38.364Z,48.55
2022-12-23T11:25:26.775Z,56.00
2022-12-23T11:27:57.874Z,49.97
2022-12-23T11:30:26.344Z,45.00
2022-12-23T11:32:54.517Z,48.95
2022-12-23T11:35:28.764Z,52.08
2022-12-23T11:37:57.729Z,50.00
2022-12-23T11:40:28.039Z,56.15
2022-12-23T11:42:59.011Z,50.80
2022-12-23T11:45:28.672Z,52.70
2022-12-23T11:47:57.207Z,50.83
2022-12-23T11:50:35.594Z,59.92
2022-12-23T11:53:14.851Z,51.40
2022-12-23T11:55:48.244Z,51.67
2022-12-23T11:58:20.384Z,61.90
2022-12-23T12:00:56.445Z,58.92
2022-12-23T12:03:28.441Z,56.35
2022-12-23T12:06:00.594Z,65.97
2022-12-23T12:08:32.854Z,63.95
2022-12-23T12:11:03.918Z,62.47
2022-12-23T12:13:34.216Z,61.35
2022-12-23T12:16:11.656Z,59.03
2022-12-23T12:18:41.109Z,58.10
2022-12-23T12:21:15.003Z,61.35
2022-12-23T12:23:45.464Z,54.53
2022-12-23T12:26:17.033Z,64.70
2022-12-23T12:28:47.156Z,55.53
2022-12-23T12:31:19.728Z,64.13
2022-12-23T12:33:50.655Z,58.63
2022-12-23T12:36:29.624Z,56.42
2022-12-23T12:38:58.985Z,62.80
2022-12-23T12:41:31.827Z,55.88
2022-12-23T12:44:14.086Z,60.85
2022-12-23T12:46:44.919Z,63.70
2022-12-23T12:49:16.550Z,54.47
2022-12-23T12:51:50.303Z,57.42
2022-12-23T12:54:24.686Z,51.78
2022-12-23T12:56:54.688Z,62.08
2022-12-23T12:59:24.706Z,54.22
2022-12-23T13:02:05.207Z,47.10
2022-12-23T13:04:47.884Z,48.50
2022-12-23T13:09:55.192Z,44.53
2022-12-23T13:12:27.239Z,48.78
2022-12-23T13:15:01.331Z,47.78
2022-12-23T13:17:33.556Z,47.80
2022-12-23T13:20:09.866Z,48.35
2022-12-23T13:22:39.926Z,44.85
2022-12-23T13:25:13.961Z,46.55
2022-12-23T13:27:45.997Z,48.47
2022-12-23T13:30:15.137Z,46.70
2022-12-23T13:33:01.855Z,43.13
2022-12-23T13:35:48.365Z,41.28
2022-12-23T13:38:29.954Z,40.55
2022-12-23T13:41:05.841Z,45.23
2022-12-23T13:43:41.573Z,35.10
2022-12-23T13:46:15.657Z,34.60
2022-12-23T13:48:49.417Z,39.83
2022-12-23T13:51:21.775Z,40.78
2022-12-23T13:54:02.427Z,33.35
2022-12-23T13:56:40.919Z,44.13
2022-12-23T13:59:10.822Z,35.53
2022-12-23T14:01:45.995Z,32.25
2022-12-23T14:04:32.146Z,35.45
2022-12-23T14:07:01.755Z,31.88
2022-12-23T14:09:33.603Z,32.28
2022-12-23T14:12:20.254Z,28.88
2022-12-23T14:15:13.463Z,26.30
2022-12-23T14:17:48.310Z,34.00
2022-12-23T14:20:26.315Z,29.13
2022-12-23T14:23:01.958Z,31.88
2022-12-23T14:25:38.471Z,32.05
2022-12-23T14:28:14.555Z,30.70
2022-12-23T14:30:45.735Z,27.23
2022-12-23T14:33:23.470Z,45.72
2022-12-23T14:35:57.199Z,44.85
2022-12-23T14:38:35.299Z,40.47
2022-12-23T14:41:38.291Z,30.75
2022-12-23T14:44:20.026Z,28.88
2022-12-23T14:46:57.503Z,28.25
2022-12-23T14:49:41.235Z,30.00
2022-12-23T14:52:44.391Z,26.90
2022-12-23T14:55:41.913Z,29.88
2022-12-23T14:58:40.717Z,26.65
2022-12-23T15:01:13.606Z,32.75
2022-12-23T15:03:44.751Z,29.33
2022-12-23T15:06:17.343Z,32.25
2022-12-23T15:08:47.796Z,30.40
2022-12-23T15:11:24.164Z,36.92
2022-12-23T15:13:55.121Z,34.65
2022-12-23T15:16:30.680Z,39.28
2022-12-23T15:19:02.122Z,32.13
2022-12-23T15:21:32.913Z,33.17
2022-12-23T15:24:01.336Z,32.50
2022-12-23T15:26:31.805Z,38.53
2022-12-23T15:29:01.717Z,30.60
2022-12-23T15:31:32.853Z,31.95
2022-12-23T15:34:03.990Z,31.98
2022-12-23T15:36:36.479Z,31.17
2022-12-23T15:39:09.866Z,34.80
2022-12-23T15:41:42.808Z,41.80
2022-12-23T15:44:15.313Z,41.55
2022-12-23T15:46:43.477Z,50.17
2022-12-23T15:49:12.322Z,46.58
2022-12-23T15:54:36.760Z,52.78
2022-12-23T15:57:05.824Z,59.80
2022-12-23T15:59:37.475Z,57.47
2022-12-23T16:02:49.817Z,53.20
2022-12-23T16:05:06.357Z,58.35
2022-12-23T16:07:36.504Z,55.42
2022-12-23T16:10:13.374Z,54.42
2022-12-23T16:12:42.481Z,58.53
2022-12-23T16:15:28.337Z,54.05
2022-12-23T16:18:14.297Z,53.35
2022-12-23T16:20:44.132Z,51.88
2022-12-23T16:23:13.118Z,59.95
2022-12-23T16:25:46.859Z,51.10
2022-12-23T16:28:23.061Z,54.55
2022-12-23T16:30:53.803Z,54.33
2022-12-23T16:33:36.491Z,59.22
2022-12-23T16:36:18.928Z,59.08
2022-12-23T16:41:15.463Z,56.60
2022-12-23T16:43:51.617Z,58.42
2022-12-23T16:46:23.723Z,52.50
2022-12-23T16:48:53.556Z,52.40
2022-12-23T16:51:24.536Z,56.72
2022-12-23T16:53:55.039Z,54.42
2022-12-23T16:56:25.200Z,56.17
2022-12-23T16:58:53.217Z,58.60
2022-12-23T17:01:24.209Z,52.53
2022-12-23T17:03:52.636Z,56.88
2022-12-23T17:06:21.351Z,57.28
2022-12-23T17:08:49.934Z,55.95
2022-12-23T17:11:19.678Z,48.50
2022-12-23T17:13:48.134Z,55.05
2022-12-23T17:16:19.875Z,50.33
2022-12-23T17:18:49.727Z,62.67
2022-12-23T17:21:21.453Z,68.60
2022-12-23T17:23:49.607Z,63.72
2022-12-23T17:26:17.808Z,68.03
2022-12-23T17:28:45.841Z,70.63
2022-12-23T17:31:16.304Z,67.25
2022-12-23T17:33:48.673Z,60.60
2022-12-23T17:36:17.625Z,71.03
2022-12-23T17:38:45.654Z,67.28
2022-12-23T17:41:17.601Z,71.65
2022-12-23T17:43:45.925Z,75.65
2022-12-23T17:46:14.382Z,67.80
2022-12-23T17:48:42.652Z,73.00
2022-12-23T17:51:14.838Z,76.63
2022-12-23T17:53:43.003Z,64.03
2022-12-23T17:56:13.701Z,63.72
2022-12-23T17:58:41.855Z,70.63
2022-12-23T18:01:17.562Z,68.28
2022-12-23T18:03:45.786Z,67.07
2022-12-23T18:06:17.062Z,68.55
2022-12-23T18:08:45.244Z,77.45
2022-12-23T18:11:18.345Z,61.25
2022-12-23T18:13:46.679Z,78.50
2022-12-23T18:16:14.688Z,66.50
2022-12-23T18:18:46.691Z,65.47
2022-12-23T18:21:21.652Z,65.45
2022-12-23T18:23:49.716Z,72.22
2022-12-23T18:26:17.963Z,71.10
2022-12-23T18:28:46.169Z,73.45
2022-12-23T18:31:16.123Z,77.63
2022-12-23T18:33:44.392Z,66.07
2022-12-23T18:36:22.851Z,77.55
2022-12-23T18:38:52.093Z,68.40
2022-12-23T18:41:20.381Z,69.63
2022-12-23T18:43:48.666Z,70.93
2022-12-23T18:46:16.972Z,74.47
2022-12-23T18:48:45.026Z,76.63
2022-12-23T18:51:15.428Z,73.40
2022-12-23T18:53:45.007Z,73.93
2022-12-23T18:56:27.933Z,87.10
2022-12-23T18:58:57.339Z,74.38
2022-12-23T19:01:25.471Z,72.13
2022-12-23T19:03:53.527Z,80.63
2022-12-23T19:06:21.496Z,79.00
2022-12-23T19:08:51.054Z,83.57
2022-12-23T19:11:21.237Z,98.38
2022-12-23T19:13:49.347Z,92.95
2022-12-23T19:16:19.133Z,96.60
2022-12-23T19:18:48.465Z,97.05
2022-12-23T19:21:17.426Z,102.07
2022-12-23T19:23:45.740Z,109.32
2022-12-23T19:26:15.913Z,118.93
2022-12-23T19:28:43.945Z,92.95
2022-12-23T19:31:13.213Z,106.03
2022-12-23T19:33:42.452Z,105.63
2022-12-23T19:36:11.386Z,96.88
2022-12-23T19:38:39.567Z,106.40
2022-12-23T19:41:08.193Z,99.97
2022-12-23T19:43:38.721Z,103.55
2022-12-23T19:46:08.861Z,103.72
2022-12-23T19:48:37.303Z,106.85
2022-12-23T19:51:07.648Z,110.88
2022-12-23T19:53:36.379Z,109.30
2022-12-23T19:56:06.771Z,100.07
2022-12-23T19:58:38.160Z,114.35
2022-12-23T20:01:10.646Z,96.83
2022-12-23T20:03:39.228Z,99.28
2022-12-23T20:06:08.888Z,104.90
2022-12-23T20:08:37.031Z,99.30
2022-12-23T20:11:09.838Z,95.93
2022-12-23T20:13:39.570Z,90.18
2022-12-23T20:16:08.429Z,105.03
2022-12-23T20:18:37.148Z,105.88
2022-12-23T20:21:07.001Z,104.70
2022-12-23T20:23:35.805Z,99.32
2022-12-23T20:26:04.859Z,108.80
2022-12-23T20:28:33.440Z,102.85
2022-12-23T20:31:08.128Z,105.05
2022-12-23T20:33:36.203Z,110.80
2022-12-23T20:36:04.650Z,112.05
2022-12-23T20:38:35.040Z,117.53
2022-12-23T20:41:03.825Z,118.53
2022-12-23T20:43:31.979Z,117.43
2022-12-23T20:46:00.055Z,109.72
2022-12-23T20:48:34.053Z,111.70
2022-12-23T20:51:05.599Z,110.60
2022-12-23T20:53:33.879Z,100.15
2022-12-23T20:56:02.358Z,111.40
2022-12-23T20:58:48.152Z,101.65
2022-12-23T21:01:16.217Z,114.95
2022-12-23T21:03:45.604Z,112.57
2022-12-23T21:06:13.579Z,115.05
2022-12-23T21:08:43.013Z,116.75
2022-12-23T21:11:11.607Z,119.10
2022-12-23T21:13:41.230Z,121.03
2022-12-23T21:16:11.843Z,127.82
2022-12-23T21:18:44.022Z,118.05
2022-12-23T21:21:13.691Z,140.77
2022-12-23T21:23:42.740Z,123.88
2022-12-23T21:26:13.656Z,122.90
2022-12-23T21:28:42.891Z,138.70
2022-12-23T21:31:11.168Z,120.55
2022-12-23T21:33:40.896Z,130.82
2022-12-23T21:36:11.768Z,122.90
2022-12-23T21:38:45.558Z,124.35
2022-12-23T21:41:17.530Z,123.28
2022-12-23T21:43:45.652Z,119.88
2022-12-23T21:46:16.154Z,131.27
2022-12-23T21:48:44.711Z,114.80
2022-12-23T21:51:14.599Z,121.05
2022-12-23T21:53:48.488Z,112.85
2022-12-23T21:56:17.790Z,121.15
2022-12-23T21:58:46.692Z,113.15
2022-12-23T22:01:16.347Z,126.22
2022-12-23T22:03:45.492Z,121.53
2022-12-23T22:06:15.216Z,123.15
2022-12-23T22:08:44.641Z,113.60
2022-12-23T22:11:14.436Z,103.90
2022-12-23T22:13:43.274Z,118.80
2022-12-23T22:16:12.314Z,109.22
2022-12-23T22:18:41.104Z,121.05
2022-12-23T22:21:10.993Z,105.93
2022-12-23T22:23:39.310Z,123.88
2022-12-23T22:26:09.807Z,106.45
2022-12-23T22:28:38.694Z,114.50
2022-12-23T22:31:08.629Z,118.68
2022-12-23T22:33:36.759Z,127.93
2022-12-23T22:36:05.261Z,110.97
2022-12-23T22:38:33.406Z,122.40
2022-12-23T22:41:01.470Z,132.13
2022-12-23T22:43:30.810Z,119.95
2022-12-23T22:46:00.341Z,110.15
2022-12-23T22:48:29.715Z,117.85
2022-12-23T22:51:03.015Z,110.40
2022-12-23T22:53:31.863Z,106.65
2022-12-23T22:56:00.248Z,115.88
2022-12-23T22:58:29.473Z,110.93
2022-12-23T23:00:59.079Z,110.95
2022-12-23T23:03:27.764Z,101.03
2022-12-23T23:06:00.135Z,116.05
2022-12-23T23:08:29.336Z,104.82
2022-12-23T23:10:58.234Z,94.80
2022-12-23T23:13:26.871Z,90.70
2022-12-23T23:15:57.200Z,99.32
2022-12-23T23:18:27.031Z,99.25
2022-12-23T23:20:55.235Z,107.85
2022-12-23T23:23:23.507Z,98.43
2022-12-23T23:25:51.728Z,116.05
2022-12-23T23:28:19.919Z,84.25
2022-12-23T23:30:48.473Z,101.88
2022-12-23T23:33:17.238Z,80.93
2022-12-23T23:35:46.686Z,91.88
2022-12-23T23:38:15.900Z,98.75
2022-12-23T23:40:43.947Z,96.45
2022-12-23T23:43:11.994Z,87.68
2022-12-23T23:45:40.575Z,87.32
2022-12-23T23:48:09.660Z,61.72
2022-12-23T23:50:37.818Z,76.32
2022-12-23T23:53:07.440Z,77.95
2022-12-23T23:55:35.441Z,71.45
2022-12-23T23:58:03.480Z,61.00
